SIA38 WSSS-KLAX
Flight info
| Callsign | SIA38 |
|---|---|
| Flight time | N/A |
| Altitude | 35000 |
| Route | TOMAN3A TOMAN L625 LUSMO/N0500F360 L625 AKMON/K0924F360 L625 ANOKI/N0496F360 L625 MEVIN/N0491F370 B462 KAZIK Y59 AZAMA Y57 YULIA/N0480F390 Y57 POROT OTR11 LEPKI DCT 41N160E 42N170E 42N180E/N0481F410 42N170W 42N160W 42N150W 41N140W 39N130W DCT DACEM DCT PAINT DCT PIRAT DCT BURGL IRNMN2 |
| Aircraft | A359/H-SDE2E3GHIJ3J4J5LM1ORWXY/LB1D1 |
Departure
| Time | 2026-05-05 23:38 |
|---|---|
| Airport | Singapore Changi Airport (WSSS) |
Arrival
| Time | N/A |
|---|---|
| Airport | Los Angeles International Airport (KLAX) |
| Time | Latitude | Longitude | Altitude | Speed | Heading |
|---|---|---|---|---|---|
| 2026-05-05 22:30 | 1.36111 | 103.98749 | 36 ft | 0 kts | 114° |
| 2026-05-05 23:20 | 1.36118 | 103.98735 | 35 ft | 2 kts | 120° |
| 2026-05-05 23:20 | 1.36126 | 103.98721 | 36 ft | 2 kts | 125° |
| 2026-05-05 23:20 | 1.36137 | 103.98708 | 34 ft | 2 kts | 134° |
| 2026-05-05 23:20 | 1.36149 | 103.98697 | 32 ft | 2 kts | 146° |
| 2026-05-05 23:21 | 1.36163 | 103.98690 | 34 ft | 2 kts | 161° |
| 2026-05-05 23:21 | 1.36179 | 103.98686 | 33 ft | 2 kts | 180° |
| 2026-05-05 23:21 | 1.36196 | 103.98687 | 34 ft | 2 kts | 193° |
| 2026-05-05 23:21 | 1.36209 | 103.98691 | 34 ft | 1 kts | 202° |
| 2026-05-05 23:22 | 1.36211 | 103.98692 | 34 ft | 0 kts | 203° |
| 2026-05-05 23:24 | 1.36200 | 103.98687 | 36 ft | 6 kts | 203° |
| 2026-05-05 23:24 | 1.36141 | 103.98662 | 36 ft | 11 kts | 203° |
| 2026-05-05 23:25 | 1.36084 | 103.98620 | 36 ft | 10 kts | 246° |
| 2026-05-05 23:25 | 1.36082 | 103.98557 | 36 ft | 9 kts | 270° |
| 2026-05-05 23:25 | 1.36092 | 103.98502 | 36 ft | 7 kts | 285° |
| 2026-05-05 23:25 | 1.36089 | 103.98457 | 36 ft | 6 kts | 247° |
| 2026-05-05 23:26 | 1.36059 | 103.98431 | 36 ft | 6 kts | 211° |
| 2026-05-05 23:26 | 1.36020 | 103.98414 | 37 ft | 6 kts | 200° |
| 2026-05-05 23:26 | 1.35975 | 103.98397 | 36 ft | 8 kts | 201° |
| 2026-05-05 23:26 | 1.35924 | 103.98377 | 37 ft | 8 kts | 201° |
| 2026-05-05 23:27 | 1.35868 | 103.98354 | 35 ft | 10 kts | 202° |
| 2026-05-05 23:27 | 1.35803 | 103.98327 | 37 ft | 10 kts | 202° |
| 2026-05-05 23:27 | 1.35735 | 103.98298 | 37 ft | 11 kts | 204° |
| 2026-05-05 23:27 | 1.35657 | 103.98262 | 37 ft | 14 kts | 204° |
| 2026-05-05 23:28 | 1.35567 | 103.98221 | 37 ft | 14 kts | 204° |
| 2026-05-05 23:28 | 1.35474 | 103.98181 | 37 ft | 15 kts | 201° |
| 2026-05-05 23:28 | 1.35380 | 103.98144 | 37 ft | 15 kts | 201° |
| 2026-05-05 23:28 | 1.35283 | 103.98105 | 37 ft | 15 kts | 201° |
| 2026-05-05 23:29 | 1.35185 | 103.98065 | 37 ft | 15 kts | 202° |
| 2026-05-05 23:29 | 1.35087 | 103.98023 | 37 ft | 16 kts | 204° |
| 2026-05-05 23:29 | 1.34987 | 103.97978 | 37 ft | 16 kts | 204° |
| 2026-05-05 23:29 | 1.34886 | 103.97936 | 37 ft | 15 kts | 194° |
| 2026-05-05 23:30 | 1.34812 | 103.97983 | 37 ft | 13 kts | 117° |
| 2026-05-05 23:30 | 1.34776 | 103.98063 | 37 ft | 12 kts | 112° |
| 2026-05-05 23:30 | 1.34739 | 103.98149 | 37 ft | 14 kts | 113° |
| 2026-05-05 23:30 | 1.34702 | 103.98238 | 40 ft | 12 kts | 113° |
| 2026-05-05 23:31 | 1.34676 | 103.98299 | 48 ft | 9 kts | 113° |
| 2026-05-05 23:31 | 1.34643 | 103.98376 | 53 ft | 17 kts | 113° |
| 2026-05-05 23:31 | 1.34595 | 103.98489 | 48 ft | 20 kts | 113° |
| 2026-05-05 23:31 | 1.34530 | 103.98642 | 37 ft | 26 kts | 113° |
| 2026-05-05 23:32 | 1.34462 | 103.98804 | 36 ft | 25 kts | 113° |
| 2026-05-05 23:32 | 1.34440 | 103.98855 | 36 ft | 0 kts | 113° |
| 2026-05-05 23:32 | 1.34435 | 103.98868 | 36 ft | 5 kts | 113° |
| 2026-05-05 23:32 | 1.34410 | 103.98917 | 36 ft | 8 kts | 133° |
| 2026-05-05 23:33 | 1.34344 | 103.98922 | 36 ft | 11 kts | 198° |
| 2026-05-05 23:33 | 1.34266 | 103.98890 | 36 ft | 12 kts | 206° |
| 2026-05-05 23:33 | 1.34190 | 103.98854 | 36 ft | 13 kts | 204° |
| 2026-05-05 23:33 | 1.34099 | 103.98814 | 36 ft | 15 kts | 204° |
| 2026-05-05 23:34 | 1.34003 | 103.98772 | 36 ft | 15 kts | 201° |
| 2026-05-05 23:34 | 1.33905 | 103.98734 | 36 ft | 15 kts | 201° |
| 2026-05-05 23:34 | 1.33806 | 103.98695 | 36 ft | 15 kts | 201° |
| 2026-05-05 23:34 | 1.33705 | 103.98655 | 36 ft | 16 kts | 201° |
| 2026-05-05 23:35 | 1.33603 | 103.98615 | 36 ft | 16 kts | 201° |
| 2026-05-05 23:35 | 1.33503 | 103.98570 | 36 ft | 16 kts | 204° |
| 2026-05-05 23:35 | 1.33391 | 103.98520 | 36 ft | 20 kts | 204° |
| 2026-05-05 23:35 | 1.33266 | 103.98466 | 36 ft | 20 kts | 203° |
| 2026-05-05 23:36 | 1.33140 | 103.98411 | 36 ft | 20 kts | 203° |
| 2026-05-05 23:36 | 1.33017 | 103.98359 | 36 ft | 15 kts | 198° |
| 2026-05-05 23:36 | 1.32940 | 103.98392 | 36 ft | 12 kts | 122° |
| 2026-05-05 23:36 | 1.32902 | 103.98467 | 36 ft | 11 kts | 106° |
| 2026-05-05 23:37 | 1.32923 | 103.98513 | 36 ft | 0 kts | 24° |
| 2026-05-05 23:37 | 1.32925 | 103.98513 | 36 ft | 2 kts | 24° |
| 2026-05-05 23:37 | 1.33082 | 103.98581 | 37 ft | 53 kts | 22° |
| 2026-05-05 23:37 | 1.33595 | 103.98798 | 37 ft | 105 kts | 23° |
| 2026-05-05 23:38 | 1.34419 | 103.99146 | 37 ft | 150 kts | 22° |
| 2026-05-05 23:38 | 1.35503 | 103.99597 | 152 ft | 180 kts | 22° |
| 2026-05-05 23:38 | 1.36644 | 104.00076 | 698 ft | 175 kts | 23° |
| 2026-05-05 23:38 | 1.37776 | 104.00544 | 1195 ft | 177 kts | 22° |
| 2026-05-05 23:39 | 1.38928 | 104.01012 | 1497 ft | 184 kts | 23° |
| 2026-05-05 23:39 | 1.40148 | 104.01534 | 1679 ft | 198 kts | 24° |
| 2026-05-05 23:39 | 1.41448 | 104.02096 | 1817 ft | 214 kts | 24° |
| 2026-05-05 23:39 | 1.42877 | 104.02709 | 1963 ft | 233 kts | 24° |
| 2026-05-05 23:40 | 1.44418 | 104.03366 | 2174 ft | 249 kts | 24° |
| 2026-05-05 23:40 | 1.46043 | 104.04085 | 2452 ft | 261 kts | 28° |
| 2026-05-05 23:40 | 1.47452 | 104.05231 | 2838 ft | 265 kts | 54° |
| 2026-05-05 23:40 | 1.48100 | 104.06940 | 3287 ft | 267 kts | 86° |
| 2026-05-05 23:41 | 1.47849 | 104.08764 | 3742 ft | 268 kts | 111° |
| 2026-05-05 23:41 | 1.47080 | 104.10443 | 4250 ft | 269 kts | 117° |
| 2026-05-05 23:41 | 1.46249 | 104.12098 | 4749 ft | 271 kts | 117° |
| 2026-05-05 23:41 | 1.45411 | 104.13796 | 5230 ft | 273 kts | 116° |
| 2026-05-05 23:42 | 1.44583 | 104.15517 | 5730 ft | 276 kts | 116° |
| 2026-05-05 23:42 | 1.43760 | 104.17253 | 6219 ft | 278 kts | 115° |
| 2026-05-05 23:42 | 1.42941 | 104.19004 | 6691 ft | 280 kts | 115° |
| 2026-05-05 23:42 | 1.42117 | 104.20775 | 7162 ft | 281 kts | 115° |
| 2026-05-05 23:43 | 1.41292 | 104.22552 | 7656 ft | 283 kts | 115° |
| 2026-05-05 23:43 | 1.40474 | 104.24317 | 8120 ft | 284 kts | 115° |
| 2026-05-05 23:43 | 1.39640 | 104.26117 | 8617 ft | 286 kts | 115° |
| 2026-05-05 23:43 | 1.38803 | 104.27926 | 9096 ft | 288 kts | 115° |
| 2026-05-05 23:44 | 1.37959 | 104.29749 | 9581 ft | 290 kts | 115° |
| 2026-05-05 23:44 | 1.37115 | 104.31572 | 10054 ft | 291 kts | 115° |
| 2026-05-05 23:44 | 1.36253 | 104.33435 | 10307 ft | 301 kts | 115° |
| 2026-05-05 23:44 | 1.35358 | 104.35370 | 10491 ft | 312 kts | 115° |
| 2026-05-05 23:45 | 1.34432 | 104.37371 | 10698 ft | 323 kts | 115° |
| 2026-05-05 23:45 | 1.33512 | 104.39465 | 10871 ft | 334 kts | 110° |
| 2026-05-05 23:45 | 1.33035 | 104.41731 | 11043 ft | 345 kts | 94° |
| 2026-05-05 23:45 | 1.33015 | 104.44165 | 11222 ft | 355 kts | 89° |
| 2026-05-05 23:46 | 1.33093 | 104.46659 | 11413 ft | 364 kts | 88° |
| 2026-05-05 23:46 | 1.33177 | 104.49206 | 11662 ft | 370 kts | 89° |
| 2026-05-05 23:46 | 1.33254 | 104.51790 | 12003 ft | 373 kts | 89° |
| 2026-05-05 23:46 | 1.33324 | 104.54383 | 12377 ft | 375 kts | 89° |
| 2026-05-05 23:47 | 1.33391 | 104.56994 | 12747 ft | 377 kts | 89° |
| 2026-05-05 23:47 | 1.33457 | 104.59616 | 13119 ft | 378 kts | 89° |
| 2026-05-05 23:47 | 1.33520 | 104.62217 | 13482 ft | 380 kts | 89° |
| 2026-05-05 23:47 | 1.33584 | 104.64865 | 13812 ft | 382 kts | 89° |
| 2026-05-05 23:48 | 1.33648 | 104.67522 | 14131 ft | 383 kts | 89° |
| 2026-05-05 23:48 | 1.33712 | 104.70192 | 14439 ft | 385 kts | 89° |
| 2026-05-05 23:48 | 1.33777 | 104.72875 | 14746 ft | 387 kts | 89° |
| 2026-05-05 23:48 | 1.33841 | 104.75575 | 15065 ft | 389 kts | 89° |
| 2026-05-05 23:49 | 1.33906 | 104.78283 | 15383 ft | 391 kts | 89° |
| 2026-05-05 23:49 | 1.33971 | 104.81006 | 15701 ft | 393 kts | 89° |
| 2026-05-05 23:49 | 1.34035 | 104.83704 | 16008 ft | 395 kts | 89° |
| 2026-05-05 23:49 | 1.34101 | 104.86451 | 16316 ft | 396 kts | 89° |
| 2026-05-05 23:50 | 1.34167 | 104.89213 | 16630 ft | 398 kts | 89° |
| 2026-05-05 23:50 | 1.34233 | 104.91982 | 16940 ft | 400 kts | 89° |
| 2026-05-05 23:50 | 1.34300 | 104.94766 | 17243 ft | 402 kts | 89° |
| 2026-05-05 23:50 | 1.34367 | 104.97562 | 17546 ft | 404 kts | 89° |
| 2026-05-05 23:51 | 1.34435 | 105.00374 | 17848 ft | 405 kts | 89° |
| 2026-05-05 23:51 | 1.34503 | 105.03197 | 18134 ft | 407 kts | 89° |
| 2026-05-05 23:51 | 1.34571 | 105.06032 | 18385 ft | 409 kts | 89° |
| 2026-05-05 23:51 | 1.34638 | 105.08841 | 18637 ft | 411 kts | 89° |
| 2026-05-05 23:52 | 1.34707 | 105.11699 | 18877 ft | 413 kts | 89° |
| 2026-05-05 23:52 | 1.34776 | 105.14572 | 19127 ft | 414 kts | 88° |
| 2026-05-05 23:52 | 1.34845 | 105.17453 | 19368 ft | 416 kts | 88° |
| 2026-05-05 23:52 | 1.34914 | 105.20345 | 19618 ft | 417 kts | 88° |
| 2026-05-05 23:53 | 1.34983 | 105.23247 | 19848 ft | 419 kts | 88° |
| 2026-05-05 23:53 | 1.35053 | 105.26161 | 20094 ft | 420 kts | 88° |
| 2026-05-05 23:53 | 1.35123 | 105.29083 | 20331 ft | 422 kts | 88° |
| 2026-05-05 23:53 | 1.35192 | 105.31977 | 20559 ft | 423 kts | 88° |
| 2026-05-05 23:54 | 1.35262 | 105.34923 | 20800 ft | 425 kts | 88° |
| 2026-05-05 23:54 | 1.35333 | 105.37883 | 21015 ft | 426 kts | 88° |
| 2026-05-05 23:54 | 1.35404 | 105.40845 | 21241 ft | 428 kts | 88° |
| 2026-05-05 23:54 | 1.35475 | 105.43823 | 21462 ft | 429 kts | 88° |
| 2026-05-05 23:55 | 1.35546 | 105.46814 | 21676 ft | 431 kts | 88° |
| 2026-05-05 23:55 | 1.35617 | 105.49809 | 21899 ft | 432 kts | 88° |
| 2026-05-05 23:55 | 1.35689 | 105.52817 | 22111 ft | 434 kts | 88° |
| 2026-05-05 23:55 | 1.35760 | 105.55792 | 22326 ft | 435 kts | 88° |
| 2026-05-05 23:56 | 1.35832 | 105.58816 | 22526 ft | 437 kts | 88° |
| 2026-05-05 23:56 | 1.35904 | 105.61856 | 22733 ft | 438 kts | 88° |
| 2026-05-05 23:56 | 1.35976 | 105.64903 | 22944 ft | 439 kts | 88° |
| 2026-05-05 23:56 | 1.36058 | 105.67959 | 23145 ft | 441 kts | 87° |
| 2026-05-05 23:57 | 1.36373 | 105.71008 | 23345 ft | 442 kts | 79° |
| 2026-05-05 23:57 | 1.37165 | 105.73975 | 23514 ft | 443 kts | 70° |
| 2026-05-05 23:57 | 1.38458 | 105.76764 | 23664 ft | 445 kts | 60° |
| 2026-05-05 23:57 | 1.40202 | 105.79270 | 23819 ft | 446 kts | 50° |
| 2026-05-05 23:58 | 1.42388 | 105.81476 | 23973 ft | 448 kts | 41° |
| 2026-05-05 23:58 | 1.44930 | 105.83280 | 24118 ft | 451 kts | 32° |
| 2026-05-05 23:58 | 1.47664 | 105.84837 | 24286 ft | 452 kts | 29° |
| 2026-05-05 23:58 | 1.50453 | 105.86297 | 24435 ft | 454 kts | 28° |
| 2026-05-05 23:59 | 1.53274 | 105.87718 | 24617 ft | 455 kts | 27° |
| 2026-05-05 23:59 | 1.56112 | 105.89135 | 24757 ft | 456 kts | 27° |
| 2026-05-05 23:59 | 1.58948 | 105.90561 | 24912 ft | 457 kts | 28° |
| 2026-05-05 23:59 | 1.61746 | 105.91981 | 25072 ft | 458 kts | 28° |
| 2026-05-06 00:00 | 1.64589 | 105.93438 | 25230 ft | 459 kts | 28° |
| 2026-05-06 00:00 | 1.67430 | 105.94903 | 25373 ft | 460 kts | 28° |
| 2026-05-06 00:00 | 1.70279 | 105.96377 | 25546 ft | 461 kts | 28° |
| 2026-05-06 00:00 | 1.73132 | 105.97856 | 25687 ft | 463 kts | 28° |
| 2026-05-06 00:01 | 1.75994 | 105.99340 | 25839 ft | 464 kts | 28° |
| 2026-05-06 00:01 | 1.78860 | 106.00826 | 25996 ft | 465 kts | 28° |
| 2026-05-06 00:01 | 1.81735 | 106.02315 | 26148 ft | 466 kts | 28° |
| 2026-05-06 00:01 | 1.84619 | 106.03809 | 26300 ft | 467 kts | 28° |
| 2026-05-06 00:02 | 1.87472 | 106.05287 | 26451 ft | 468 kts | 28° |
| 2026-05-06 00:02 | 1.90367 | 106.06786 | 26611 ft | 469 kts | 28° |
| 2026-05-06 00:02 | 1.93270 | 106.08288 | 26760 ft | 471 kts | 28° |
| 2026-05-06 00:02 | 1.96182 | 106.09794 | 26909 ft | 472 kts | 28° |
| 2026-05-06 00:03 | 1.99090 | 106.11297 | 27057 ft | 473 kts | 28° |
| 2026-05-06 00:03 | 2.02024 | 106.12814 | 27220 ft | 474 kts | 28° |
| 2026-05-06 00:03 | 2.04954 | 106.14330 | 27370 ft | 475 kts | 28° |
| 2026-05-06 00:03 | 2.07895 | 106.15851 | 27532 ft | 476 kts | 28° |
| 2026-05-06 00:04 | 2.10802 | 106.17356 | 27663 ft | 477 kts | 28° |
| 2026-05-06 00:04 | 2.13756 | 106.18884 | 27823 ft | 479 kts | 28° |
| 2026-05-06 00:04 | 2.16715 | 106.20415 | 27967 ft | 480 kts | 28° |
| 2026-05-06 00:04 | 2.19621 | 106.21918 | 28110 ft | 481 kts | 28° |
| 2026-05-06 00:05 | 2.25646 | 106.25036 | 28420 ft | 484 kts | 28° |
| 2026-05-06 00:05 | 2.28638 | 106.26584 | 28561 ft | 485 kts | 28° |
| 2026-05-06 00:05 | 2.31636 | 106.28136 | 28705 ft | 486 kts | 28° |
| 2026-05-06 00:06 | 2.34640 | 106.29690 | 28851 ft | 487 kts | 28° |
| 2026-05-06 00:06 | 2.37617 | 106.31230 | 28991 ft | 488 kts | 28° |
| 2026-05-06 00:06 | 2.40635 | 106.32792 | 29129 ft | 489 kts | 28° |
| 2026-05-06 00:06 | 2.43659 | 106.34357 | 29268 ft | 490 kts | 28° |
| 2026-05-06 00:07 | 2.46692 | 106.35928 | 29410 ft | 491 kts | 28° |
| 2026-05-06 00:07 | 2.49732 | 106.37501 | 29536 ft | 492 kts | 28° |
| 2026-05-06 00:07 | 2.52779 | 106.39079 | 29681 ft | 493 kts | 28° |
| 2026-05-06 00:07 | 2.55831 | 106.40659 | 29802 ft | 495 kts | 28° |
| 2026-05-06 00:08 | 2.58846 | 106.42225 | 29938 ft | 495 kts | 28° |
| 2026-05-06 00:08 | 2.61905 | 106.43811 | 30052 ft | 496 kts | 28° |
| 2026-05-06 00:08 | 2.64977 | 106.45401 | 30152 ft | 497 kts | 28° |
| 2026-05-06 00:08 | 2.68053 | 106.46992 | 30266 ft | 498 kts | 28° |
| 2026-05-06 00:09 | 2.71132 | 106.48586 | 30380 ft | 499 kts | 28° |
| 2026-05-06 00:09 | 2.74216 | 106.50183 | 30490 ft | 500 kts | 28° |
| 2026-05-06 00:09 | 2.77310 | 106.51789 | 30610 ft | 501 kts | 28° |
| 2026-05-06 00:09 | 2.80400 | 106.53391 | 30720 ft | 501 kts | 28° |
| 2026-05-06 00:10 | 2.83506 | 106.54998 | 30834 ft | 502 kts | 28° |
| 2026-05-06 00:10 | 2.86609 | 106.56605 | 30943 ft | 503 kts | 28° |
| 2026-05-06 00:10 | 2.89678 | 106.58193 | 31052 ft | 504 kts | 28° |
| 2026-05-06 00:10 | 2.92797 | 106.59806 | 31161 ft | 505 kts | 28° |
| 2026-05-06 00:11 | 2.95916 | 106.61418 | 31335 ft | 504 kts | 28° |
| 2026-05-06 00:11 | 2.99023 | 106.63024 | 31563 ft | 502 kts | 28° |
| 2026-05-06 00:11 | 3.02122 | 106.64626 | 31799 ft | 500 kts | 28° |
| 2026-05-06 00:11 | 3.05202 | 106.66220 | 32035 ft | 498 kts | 28° |
| 2026-05-06 00:12 | 3.08233 | 106.67789 | 32271 ft | 496 kts | 28° |
| 2026-05-06 00:12 | 3.11330 | 106.69393 | 32514 ft | 494 kts | 28° |
| 2026-05-06 00:12 | 3.14329 | 106.70945 | 32760 ft | 492 kts | 28° |
| 2026-05-06 00:12 | 3.17369 | 106.72520 | 33015 ft | 490 kts | 28° |
| 2026-05-06 00:13 | 3.20395 | 106.74087 | 33245 ft | 489 kts | 28° |
| 2026-05-06 00:13 | 3.23409 | 106.75648 | 33500 ft | 487 kts | 28° |
| 2026-05-06 00:13 | 3.26415 | 106.77204 | 33758 ft | 485 kts | 28° |
| 2026-05-06 00:13 | 3.29408 | 106.78754 | 33988 ft | 484 kts | 28° |
| 2026-05-06 00:14 | 3.32396 | 106.80302 | 34212 ft | 482 kts | 28° |
| 2026-05-06 00:14 | 3.35365 | 106.81840 | 34445 ft | 480 kts | 28° |
| 2026-05-06 00:14 | 3.38288 | 106.83355 | 34656 ft | 479 kts | 28° |
| 2026-05-06 00:14 | 3.41243 | 106.84885 | 34828 ft | 479 kts | 28° |
| 2026-05-06 00:15 | 3.44214 | 106.86425 | 34863 ft | 483 kts | 28° |
| 2026-05-06 00:15 | 3.50235 | 106.89546 | 34865 ft | 492 kts | 28° |
| 2026-05-06 00:16 | 3.56294 | 106.92836 | 34862 ft | 499 kts | 33° |
| 2026-05-06 00:16 | 3.62031 | 106.96714 | 34862 ft | 501 kts | 36° |
| 2026-05-06 00:17 | 3.67724 | 107.00738 | 34863 ft | 501 kts | 36° |
| 2026-05-06 00:17 | 3.73402 | 107.04777 | 34857 ft | 501 kts | 36° |
| 2026-05-06 00:18 | 3.79087 | 107.08806 | 34861 ft | 500 kts | 36° |
| 2026-05-06 00:18 | 3.84738 | 107.12800 | 34863 ft | 500 kts | 36° |
| 2026-05-06 00:19 | 3.90424 | 107.16816 | 34863 ft | 500 kts | 36° |
| 2026-05-06 00:19 | 3.96112 | 107.20834 | 34863 ft | 500 kts | 36° |
| 2026-05-06 00:20 | 4.01798 | 107.24852 | 34861 ft | 500 kts | 36° |
| 2026-05-06 00:20 | 4.07443 | 107.28843 | 34861 ft | 500 kts | 36° |
| 2026-05-06 00:21 | 4.13126 | 107.32860 | 34864 ft | 500 kts | 36° |
| 2026-05-06 00:21 | 4.18812 | 107.36881 | 34865 ft | 500 kts | 36° |
| 2026-05-06 00:22 | 4.24491 | 107.40897 | 34863 ft | 500 kts | 36° |
| 2026-05-06 00:22 | 4.30169 | 107.44914 | 34865 ft | 499 kts | 36° |
| 2026-05-06 00:23 | 4.35803 | 107.48900 | 34861 ft | 499 kts | 36° |
| 2026-05-06 00:23 | 4.41471 | 107.52911 | 34866 ft | 499 kts | 36° |
| 2026-05-06 00:24 | 4.47139 | 107.56922 | 34861 ft | 499 kts | 36° |
| 2026-05-06 00:24 | 4.52811 | 107.60937 | 34865 ft | 499 kts | 36° |
| 2026-05-06 00:25 | 4.58439 | 107.64922 | 34859 ft | 499 kts | 36° |
| 2026-05-06 00:25 | 4.64104 | 107.68934 | 34861 ft | 498 kts | 36° |
| 2026-05-06 00:26 | 4.69766 | 107.72945 | 34863 ft | 498 kts | 36° |
| 2026-05-06 00:26 | 4.75430 | 107.76957 | 34864 ft | 498 kts | 36° |
| 2026-05-06 00:27 | 4.81053 | 107.80942 | 34864 ft | 498 kts | 36° |
| 2026-05-06 00:27 | 4.86711 | 107.84952 | 34865 ft | 498 kts | 36° |
| 2026-05-06 00:28 | 4.92372 | 107.88965 | 34863 ft | 498 kts | 36° |
| 2026-05-06 00:28 | 4.98036 | 107.92981 | 34867 ft | 498 kts | 36° |
| 2026-05-06 00:29 | 5.03665 | 107.96958 | 34866 ft | 498 kts | 35° |
| 2026-05-06 00:29 | 5.09343 | 108.00937 | 34868 ft | 498 kts | 35° |
| 2026-05-06 00:30 | 5.15024 | 108.04920 | 34869 ft | 498 kts | 35° |
| 2026-05-06 00:30 | 5.20696 | 108.08903 | 34868 ft | 497 kts | 35° |
| 2026-05-06 00:31 | 5.26364 | 108.12887 | 34865 ft | 497 kts | 36° |
| 2026-05-06 00:31 | 5.31993 | 108.16845 | 34868 ft | 498 kts | 35° |
| 2026-05-06 00:32 | 5.37663 | 108.20832 | 34868 ft | 498 kts | 35° |
| 2026-05-06 00:32 | 5.43331 | 108.24819 | 34870 ft | 497 kts | 35° |
| 2026-05-06 00:33 | 5.48963 | 108.28782 | 34867 ft | 497 kts | 35° |
| 2026-05-06 00:33 | 5.54626 | 108.32766 | 34869 ft | 497 kts | 35° |
| 2026-05-06 00:34 | 5.60285 | 108.36750 | 34872 ft | 497 kts | 35° |
| 2026-05-06 00:34 | 5.65940 | 108.40731 | 34869 ft | 496 kts | 35° |
| 2026-05-06 00:35 | 5.71555 | 108.44686 | 34868 ft | 496 kts | 35° |
| 2026-05-06 00:35 | 5.77206 | 108.48666 | 34871 ft | 496 kts | 35° |
| 2026-05-06 00:36 | 5.82858 | 108.52648 | 34873 ft | 496 kts | 35° |
| 2026-05-06 00:36 | 5.88510 | 108.56631 | 34874 ft | 496 kts | 35° |
| 2026-05-06 00:37 | 5.94123 | 108.60588 | 34871 ft | 496 kts | 35° |
| 2026-05-06 00:37 | 5.99775 | 108.64573 | 34873 ft | 496 kts | 35° |
| 2026-05-06 00:38 | 6.05418 | 108.68552 | 34872 ft | 496 kts | 35° |
| 2026-05-06 00:38 | 6.11068 | 108.72539 | 34871 ft | 496 kts | 35° |
| 2026-05-06 00:39 | 6.16680 | 108.76498 | 34878 ft | 496 kts | 35° |
| 2026-05-06 00:39 | 6.22329 | 108.80485 | 34876 ft | 497 kts | 35° |
| 2026-05-06 00:40 | 6.27980 | 108.84475 | 34871 ft | 496 kts | 35° |
| 2026-05-06 00:40 | 6.33633 | 108.88468 | 34876 ft | 497 kts | 35° |
| 2026-05-06 00:41 | 6.39251 | 108.92436 | 34878 ft | 497 kts | 35° |
| 2026-05-06 00:41 | 6.44902 | 108.96430 | 34872 ft | 497 kts | 35° |
| 2026-05-06 00:42 | 6.50557 | 109.00426 | 34880 ft | 497 kts | 35° |
| 2026-05-06 00:42 | 6.56213 | 109.04425 | 34879 ft | 497 kts | 35° |
| 2026-05-06 00:43 | 6.61829 | 109.08396 | 34875 ft | 497 kts | 35° |
| 2026-05-06 00:43 | 6.67482 | 109.12395 | 34884 ft | 497 kts | 35° |
| 2026-05-06 00:44 | 6.73131 | 109.16393 | 34879 ft | 497 kts | 35° |
| 2026-05-06 00:44 | 6.78781 | 109.20391 | 34884 ft | 496 kts | 35° |
| 2026-05-06 00:45 | 6.84393 | 109.24365 | 34883 ft | 496 kts | 35° |
| 2026-05-06 00:45 | 6.90037 | 109.28362 | 34884 ft | 497 kts | 35° |
| 2026-05-06 00:46 | 6.95689 | 109.32366 | 34885 ft | 497 kts | 35° |
| 2026-05-06 00:46 | 7.01336 | 109.36368 | 34883 ft | 497 kts | 35° |
| 2026-05-06 00:47 | 7.06951 | 109.40348 | 34886 ft | 497 kts | 35° |
| 2026-05-06 00:47 | 7.12598 | 109.44352 | 34885 ft | 497 kts | 35° |
| 2026-05-06 00:48 | 7.18245 | 109.48358 | 34884 ft | 496 kts | 35° |
| 2026-05-06 00:48 | 7.23892 | 109.52364 | 34886 ft | 496 kts | 35° |
| 2026-05-06 00:49 | 7.29499 | 109.56343 | 34887 ft | 496 kts | 35° |
| 2026-05-06 00:49 | 7.35142 | 109.60349 | 34889 ft | 496 kts | 35° |
| 2026-05-06 00:50 | 7.40784 | 109.64356 | 34887 ft | 496 kts | 35° |
| 2026-05-06 00:50 | 7.46429 | 109.68366 | 34888 ft | 496 kts | 35° |
| 2026-05-06 00:51 | 7.52068 | 109.72373 | 34894 ft | 496 kts | 35° |
| 2026-05-06 00:51 | 7.57670 | 109.76356 | 34894 ft | 496 kts | 35° |
| 2026-05-06 00:52 | 7.62357 | 109.79689 | 34892 ft | 496 kts | 35° |
| 2026-05-06 00:52 | 7.68952 | 109.84380 | 34892 ft | 496 kts | 36° |
| 2026-05-06 00:53 | 7.74593 | 109.88394 | 34889 ft | 496 kts | 36° |
| 2026-05-06 00:53 | 7.80196 | 109.92382 | 34894 ft | 496 kts | 36° |
| 2026-05-06 00:54 | 7.85836 | 109.96398 | 34891 ft | 496 kts | 36° |
| 2026-05-06 00:54 | 7.91483 | 110.00420 | 34895 ft | 497 kts | 36° |
| 2026-05-06 00:55 | 7.97087 | 110.04412 | 34891 ft | 497 kts | 36° |
| 2026-05-06 00:55 | 8.02732 | 110.08437 | 34893 ft | 497 kts | 36° |
| 2026-05-06 00:56 | 8.08386 | 110.12468 | 34890 ft | 498 kts | 36° |
| 2026-05-06 00:56 | 8.14040 | 110.16501 | 34895 ft | 498 kts | 36° |
| 2026-05-06 00:57 | 8.19659 | 110.20510 | 34889 ft | 498 kts | 36° |
| 2026-05-06 00:57 | 8.25315 | 110.24559 | 34890 ft | 498 kts | 36° |
| 2026-05-06 00:58 | 8.30957 | 110.28625 | 34896 ft | 498 kts | 36° |
| 2026-05-06 00:58 | 8.36596 | 110.32693 | 34897 ft | 498 kts | 36° |
| 2026-05-06 00:59 | 8.42192 | 110.36729 | 34895 ft | 498 kts | 36° |
| 2026-05-06 00:59 | 8.47834 | 110.40797 | 34892 ft | 498 kts | 36° |
| 2026-05-06 01:00 | 8.53466 | 110.44859 | 34899 ft | 497 kts | 36° |
| 2026-05-06 01:00 | 8.59097 | 110.48920 | 34903 ft | 497 kts | 36° |
| 2026-05-06 01:01 | 8.64688 | 110.52955 | 34900 ft | 497 kts | 36° |
| 2026-05-06 01:01 | 8.70310 | 110.57015 | 34895 ft | 497 kts | 36° |
| 2026-05-06 01:02 | 8.75933 | 110.61075 | 34900 ft | 496 kts | 36° |
| 2026-05-06 01:02 | 8.81552 | 110.65135 | 34897 ft | 496 kts | 36° |
| 2026-05-06 01:03 | 8.87129 | 110.69167 | 34890 ft | 496 kts | 36° |
| 2026-05-06 01:03 | 8.92742 | 110.73225 | 34907 ft | 496 kts | 36° |
| 2026-05-06 01:04 | 8.98358 | 110.77286 | 34897 ft | 496 kts | 36° |
| 2026-05-06 01:04 | 9.03968 | 110.81346 | 34907 ft | 496 kts | 36° |
| 2026-05-06 01:05 | 9.09540 | 110.85381 | 34892 ft | 496 kts | 36° |
| 2026-05-06 01:05 | 9.15156 | 110.89448 | 34894 ft | 496 kts | 36° |
| 2026-05-06 01:06 | 9.20768 | 110.93516 | 34909 ft | 496 kts | 36° |
| 2026-05-06 01:06 | 9.26382 | 110.97585 | 34895 ft | 497 kts | 36° |
| 2026-05-06 01:07 | 9.31964 | 111.01630 | 34895 ft | 497 kts | 36° |
| 2026-05-06 01:07 | 9.37585 | 111.05706 | 34906 ft | 497 kts | 36° |
| 2026-05-06 01:08 | 9.43206 | 111.09784 | 34893 ft | 497 kts | 37° |
| 2026-05-06 01:08 | 9.48827 | 111.13866 | 34898 ft | 497 kts | 36° |
| 2026-05-06 01:09 | 9.54418 | 111.17929 | 34896 ft | 498 kts | 36° |
| 2026-05-06 01:09 | 9.60052 | 111.22027 | 34899 ft | 499 kts | 36° |
| 2026-05-06 01:10 | 9.65694 | 111.26126 | 34894 ft | 499 kts | 36° |
| 2026-05-06 01:10 | 9.71312 | 111.30209 | 34909 ft | 500 kts | 36° |
| 2026-05-06 01:11 | 9.76965 | 111.34322 | 34894 ft | 501 kts | 36° |
| 2026-05-06 01:11 | 9.82623 | 111.38440 | 34891 ft | 501 kts | 36° |
| 2026-05-06 01:12 | 9.88285 | 111.42563 | 34909 ft | 501 kts | 36° |
| 2026-05-06 01:12 | 9.93953 | 111.46692 | 34896 ft | 502 kts | 36° |
| 2026-05-06 01:13 | 9.99586 | 111.50797 | 34893 ft | 502 kts | 36° |
| 2026-05-06 01:13 | 10.05259 | 111.54933 | 34910 ft | 502 kts | 36° |
| 2026-05-06 01:14 | 10.13770 | 111.61143 | 34909 ft | 502 kts | 35° |
| 2026-05-06 01:14 | 10.19398 | 111.65252 | 34896 ft | 502 kts | 35° |
| 2026-05-06 01:15 | 10.25066 | 111.69392 | 34911 ft | 502 kts | 35° |
| 2026-05-06 01:15 | 10.30739 | 111.73534 | 34900 ft | 502 kts | 35° |
| 2026-05-06 01:16 | 10.36414 | 111.77680 | 34894 ft | 503 kts | 35° |
| 2026-05-06 01:16 | 10.42053 | 111.81803 | 34900 ft | 503 kts | 35° |
| 2026-05-06 01:17 | 10.47732 | 111.85957 | 34898 ft | 503 kts | 35° |
| 2026-05-06 01:17 | 10.53415 | 111.90117 | 34910 ft | 504 kts | 35° |
| 2026-05-06 01:18 | 10.59100 | 111.94279 | 34901 ft | 503 kts | 35° |
| 2026-05-06 01:18 | 10.64739 | 111.98410 | 34912 ft | 503 kts | 35° |
| 2026-05-06 01:19 | 10.70417 | 112.02573 | 34895 ft | 503 kts | 35° |
| 2026-05-06 01:19 | 10.76083 | 112.06727 | 34894 ft | 502 kts | 35° |
| 2026-05-06 01:20 | 10.81750 | 112.10883 | 34909 ft | 502 kts | 35° |
| 2026-05-06 01:20 | 10.87374 | 112.15010 | 34906 ft | 501 kts | 35° |
| 2026-05-06 01:21 | 10.93031 | 112.19164 | 34896 ft | 501 kts | 35° |
| 2026-05-06 01:21 | 10.98681 | 112.23315 | 34912 ft | 501 kts | 35° |
| 2026-05-06 01:22 | 11.04343 | 112.27454 | 34897 ft | 501 kts | 35° |
| 2026-05-06 01:22 | 11.10004 | 112.31586 | 34908 ft | 500 kts | 35° |
| 2026-05-06 01:23 | 11.15619 | 112.35694 | 34901 ft | 500 kts | 35° |
| 2026-05-06 01:23 | 11.21273 | 112.39832 | 34901 ft | 500 kts | 34° |
| 2026-05-06 01:24 | 11.26923 | 112.43970 | 34900 ft | 500 kts | 34° |
| 2026-05-06 01:24 | 11.32566 | 112.48109 | 34915 ft | 500 kts | 35° |
| 2026-05-06 01:25 | 11.38179 | 112.52228 | 34903 ft | 501 kts | 34° |
| 2026-05-06 01:25 | 11.43836 | 112.56378 | 34901 ft | 501 kts | 34° |
| 2026-05-06 01:26 | 11.48530 | 112.59828 | 34902 ft | 501 kts | 34° |
| 2026-05-06 01:26 | 11.54188 | 112.63990 | 34899 ft | 501 kts | 34° |
| 2026-05-06 01:27 | 11.60760 | 112.68835 | 34904 ft | 502 kts | 34° |
| 2026-05-06 01:27 | 11.66418 | 112.73008 | 34905 ft | 502 kts | 34° |
| 2026-05-06 01:28 | 11.71121 | 112.76478 | 34902 ft | 502 kts | 34° |
| 2026-05-06 01:28 | 11.76781 | 112.80656 | 34904 ft | 503 kts | 34° |
| 2026-05-06 01:29 | 11.83367 | 112.85520 | 34904 ft | 503 kts | 34° |
| 2026-05-06 01:29 | 11.88078 | 112.89000 | 34907 ft | 503 kts | 34° |
| 2026-05-06 01:30 | 11.93747 | 112.93191 | 34904 ft | 503 kts | 34° |
| 2026-05-06 01:30 | 11.99414 | 112.97382 | 34907 ft | 503 kts | 34° |
| 2026-05-06 01:31 | 12.06007 | 113.02261 | 34904 ft | 503 kts | 34° |
| 2026-05-06 01:31 | 12.10720 | 113.05751 | 34903 ft | 503 kts | 34° |
| 2026-05-06 01:32 | 12.16389 | 113.09950 | 34909 ft | 503 kts | 34° |
| 2026-05-06 01:32 | 12.22063 | 113.14155 | 34910 ft | 503 kts | 34° |
| 2026-05-06 01:33 | 12.27729 | 113.18358 | 34909 ft | 503 kts | 34° |
| 2026-05-06 01:33 | 12.33359 | 113.22535 | 34909 ft | 503 kts | 34° |
| 2026-05-06 01:34 | 12.39025 | 113.26746 | 34909 ft | 503 kts | 34° |
| 2026-05-06 01:34 | 12.44693 | 113.30948 | 34908 ft | 503 kts | 34° |
| 2026-05-06 01:35 | 12.50363 | 113.35147 | 34912 ft | 503 kts | 34° |
| 2026-05-06 01:35 | 12.55991 | 113.39320 | 34913 ft | 503 kts | 34° |
| 2026-05-06 01:36 | 12.61656 | 113.43525 | 34911 ft | 503 kts | 34° |
| 2026-05-06 01:36 | 12.67320 | 113.47733 | 34910 ft | 503 kts | 34° |
| 2026-05-06 01:37 | 12.72983 | 113.51942 | 34913 ft | 503 kts | 34° |
| 2026-05-06 01:37 | 12.78604 | 113.56122 | 34914 ft | 503 kts | 34° |
| 2026-05-06 01:38 | 12.84271 | 113.60339 | 34916 ft | 503 kts | 34° |
| 2026-05-06 01:38 | 12.89930 | 113.64552 | 34914 ft | 503 kts | 34° |
| 2026-05-06 01:39 | 12.95595 | 113.68773 | 34912 ft | 503 kts | 34° |
| 2026-05-06 01:39 | 13.01254 | 113.72991 | 34911 ft | 503 kts | 34° |
| 2026-05-06 01:40 | 13.06872 | 113.77181 | 34915 ft | 503 kts | 34° |
| 2026-05-06 01:40 | 13.12535 | 113.81407 | 34912 ft | 503 kts | 34° |
| 2026-05-06 01:41 | 13.18200 | 113.85636 | 34913 ft | 503 kts | 34° |
| 2026-05-06 01:41 | 13.23859 | 113.89864 | 34916 ft | 503 kts | 34° |
| 2026-05-06 01:42 | 13.29478 | 113.94065 | 34913 ft | 503 kts | 34° |
| 2026-05-06 01:42 | 13.35138 | 113.98299 | 34919 ft | 503 kts | 34° |
| 2026-05-06 01:43 | 13.40799 | 114.02535 | 34921 ft | 503 kts | 34° |
| 2026-05-06 01:43 | 13.46456 | 114.06771 | 34918 ft | 503 kts | 34° |
| 2026-05-06 01:44 | 13.52072 | 114.10980 | 34919 ft | 503 kts | 34° |
| 2026-05-06 01:44 | 13.57732 | 114.15224 | 34919 ft | 503 kts | 34° |
| 2026-05-06 01:45 | 13.63387 | 114.19467 | 34918 ft | 503 kts | 34° |
| 2026-05-06 01:45 | 13.69048 | 114.23716 | 34913 ft | 503 kts | 34° |
| 2026-05-06 01:46 | 13.74699 | 114.27961 | 34919 ft | 504 kts | 34° |
| 2026-05-06 01:46 | 13.80358 | 114.32214 | 34919 ft | 504 kts | 34° |
| 2026-05-06 01:47 | 13.85977 | 114.36440 | 34921 ft | 504 kts | 34° |
| 2026-05-06 01:47 | 13.91639 | 114.40701 | 34919 ft | 504 kts | 34° |
| 2026-05-06 01:48 | 13.97207 | 114.45087 | 34922 ft | 506 kts | 41° |
| 2026-05-06 01:48 | 14.02196 | 114.50203 | 34923 ft | 507 kts | 44° |
| 2026-05-06 01:49 | 14.07009 | 114.55444 | 34921 ft | 507 kts | 45° |
| 2026-05-06 01:49 | 14.11831 | 114.60749 | 34924 ft | 507 kts | 45° |
| 2026-05-06 01:50 | 14.16573 | 114.65944 | 34921 ft | 507 kts | 45° |
| 2026-05-06 01:50 | 14.21459 | 114.71279 | 34921 ft | 508 kts | 45° |
| 2026-05-06 01:51 | 14.26472 | 114.76751 | 34923 ft | 508 kts | 45° |
| 2026-05-06 01:51 | 14.31319 | 114.82045 | 34921 ft | 508 kts | 45° |
| 2026-05-06 01:52 | 14.35964 | 114.87123 | 34923 ft | 508 kts | 45° |
| 2026-05-06 01:52 | 14.40811 | 114.92426 | 34918 ft | 508 kts | 45° |
| 2026-05-06 01:53 | 14.45664 | 114.97739 | 34918 ft | 509 kts | 45° |
| 2026-05-06 01:53 | 14.50481 | 115.03016 | 34922 ft | 509 kts | 45° |
| 2026-05-06 01:54 | 14.55331 | 115.08333 | 34922 ft | 509 kts | 45° |
| 2026-05-06 01:54 | 14.60182 | 115.13656 | 34923 ft | 509 kts | 45° |
| 2026-05-06 01:55 | 14.65000 | 115.18945 | 34924 ft | 509 kts | 45° |
| 2026-05-06 01:55 | 14.69849 | 115.24272 | 34922 ft | 509 kts | 45° |
| 2026-05-06 01:56 | 14.74693 | 115.29597 | 34923 ft | 509 kts | 45° |
| 2026-05-06 01:56 | 14.79540 | 115.34929 | 34923 ft | 509 kts | 45° |
| 2026-05-06 01:57 | 14.84386 | 115.40265 | 34926 ft | 509 kts | 45° |
| 2026-05-06 01:57 | 14.89191 | 115.45558 | 34925 ft | 509 kts | 45° |
| 2026-05-06 01:58 | 14.94032 | 115.50894 | 34926 ft | 508 kts | 45° |
| 2026-05-06 01:58 | 14.98859 | 115.56220 | 34927 ft | 508 kts | 45° |
| 2026-05-06 01:59 | 15.03668 | 115.61529 | 34924 ft | 508 kts | 45° |
| 2026-05-06 01:59 | 15.08502 | 115.66870 | 34925 ft | 508 kts | 45° |
| 2026-05-06 02:00 | 15.13330 | 115.72208 | 34924 ft | 508 kts | 45° |
| 2026-05-06 02:00 | 15.18159 | 115.77550 | 34927 ft | 508 kts | 45° |
| 2026-05-06 02:01 | 15.22983 | 115.82890 | 34924 ft | 508 kts | 45° |
| 2026-05-06 02:01 | 15.27784 | 115.88210 | 34924 ft | 508 kts | 45° |
| 2026-05-06 02:02 | 15.32611 | 115.93562 | 34925 ft | 508 kts | 45° |
| 2026-05-06 02:02 | 15.37429 | 115.98907 | 34928 ft | 508 kts | 45° |
| 2026-05-06 02:03 | 15.42252 | 116.04263 | 34926 ft | 508 kts | 45° |
| 2026-05-06 02:03 | 15.47040 | 116.09582 | 34930 ft | 508 kts | 45° |
| 2026-05-06 02:04 | 15.51843 | 116.14923 | 34930 ft | 508 kts | 45° |
| 2026-05-06 02:04 | 15.56657 | 116.20280 | 34932 ft | 508 kts | 45° |
| 2026-05-06 02:05 | 15.61440 | 116.25606 | 34931 ft | 508 kts | 45° |
| 2026-05-06 02:05 | 15.66252 | 116.30968 | 34930 ft | 508 kts | 45° |
| 2026-05-06 02:06 | 15.71065 | 116.36336 | 34930 ft | 508 kts | 45° |
| 2026-05-06 02:06 | 15.75873 | 116.41702 | 34932 ft | 508 kts | 45° |
| 2026-05-06 02:07 | 15.80685 | 116.47076 | 34931 ft | 508 kts | 45° |
| 2026-05-06 02:07 | 15.85461 | 116.52415 | 34931 ft | 508 kts | 45° |
| 2026-05-06 02:08 | 15.90265 | 116.57788 | 34934 ft | 508 kts | 45° |
| 2026-05-06 02:08 | 15.95074 | 116.63171 | 34934 ft | 508 kts | 45° |
| 2026-05-06 02:09 | 15.99878 | 116.68554 | 34934 ft | 508 kts | 45° |
| 2026-05-06 02:09 | 16.04655 | 116.73909 | 34934 ft | 508 kts | 45° |
| 2026-05-06 02:10 | 16.09466 | 116.79307 | 34931 ft | 508 kts | 45° |
| 2026-05-06 02:10 | 16.14273 | 116.84703 | 34932 ft | 509 kts | 45° |
| 2026-05-06 02:11 | 16.19078 | 116.90103 | 34933 ft | 509 kts | 45° |
| 2026-05-06 02:11 | 16.23866 | 116.95488 | 34935 ft | 509 kts | 45° |
| 2026-05-06 02:12 | 16.28603 | 117.00819 | 34934 ft | 509 kts | 45° |
| 2026-05-06 02:12 | 16.33386 | 117.06206 | 34934 ft | 510 kts | 45° |
| 2026-05-06 02:13 | 16.38267 | 117.11708 | 34934 ft | 510 kts | 45° |
| 2026-05-06 02:13 | 16.43082 | 117.17140 | 34935 ft | 510 kts | 45° |
| 2026-05-06 02:14 | 16.47896 | 117.22576 | 34935 ft | 511 kts | 45° |
| 2026-05-06 02:14 | 16.52679 | 117.27981 | 34934 ft | 511 kts | 45° |
| 2026-05-06 02:15 | 16.57495 | 117.33426 | 34929 ft | 511 kts | 45° |
| 2026-05-06 02:15 | 16.62308 | 117.38872 | 34929 ft | 511 kts | 45° |
| 2026-05-06 02:16 | 16.67125 | 117.44328 | 34933 ft | 511 kts | 45° |
| 2026-05-06 02:16 | 16.71907 | 117.49749 | 34933 ft | 511 kts | 45° |
| 2026-05-06 02:17 | 16.76726 | 117.55216 | 34937 ft | 512 kts | 45° |
| 2026-05-06 02:17 | 16.81544 | 117.60687 | 34935 ft | 512 kts | 45° |
| 2026-05-06 02:18 | 16.86359 | 117.66158 | 34933 ft | 512 kts | 45° |
| 2026-05-06 02:18 | 16.91141 | 117.71597 | 34932 ft | 512 kts | 45° |
| 2026-05-06 02:19 | 16.95961 | 117.77082 | 34935 ft | 512 kts | 45° |
| 2026-05-06 02:19 | 17.00777 | 117.82568 | 34932 ft | 512 kts | 45° |
| 2026-05-06 02:20 | 17.08000 | 117.90803 | 34936 ft | 513 kts | 45° |
| 2026-05-06 02:21 | 17.12785 | 117.96265 | 34935 ft | 513 kts | 45° |
| 2026-05-06 02:21 | 17.17597 | 118.01762 | 34933 ft | 513 kts | 45° |
| 2026-05-06 02:22 | 17.22411 | 118.07266 | 34935 ft | 513 kts | 45° |
| 2026-05-06 02:22 | 17.27222 | 118.12771 | 34935 ft | 513 kts | 45° |
| 2026-05-06 02:23 | 17.32003 | 118.18247 | 34937 ft | 513 kts | 45° |
| 2026-05-06 02:23 | 17.36818 | 118.23765 | 34939 ft | 513 kts | 46° |
| 2026-05-06 02:24 | 17.41625 | 118.29279 | 34939 ft | 513 kts | 46° |
| 2026-05-06 02:24 | 17.46437 | 118.34804 | 34937 ft | 513 kts | 46° |
| 2026-05-06 02:25 | 17.51215 | 118.40294 | 34937 ft | 513 kts | 46° |
| 2026-05-06 02:25 | 17.56021 | 118.45822 | 34934 ft | 513 kts | 46° |
| 2026-05-06 02:26 | 17.60830 | 118.51357 | 34938 ft | 514 kts | 46° |
| 2026-05-06 02:26 | 17.65641 | 118.56899 | 34935 ft | 514 kts | 46° |
| 2026-05-06 02:27 | 17.70452 | 118.62446 | 34937 ft | 514 kts | 46° |
| 2026-05-06 02:27 | 17.75226 | 118.67956 | 34937 ft | 514 kts | 46° |
| 2026-05-06 02:28 | 17.80039 | 118.73515 | 34938 ft | 514 kts | 45° |
| 2026-05-06 02:28 | 17.84852 | 118.79079 | 34937 ft | 515 kts | 45° |
| 2026-05-06 02:29 | 17.89664 | 118.84645 | 34935 ft | 515 kts | 46° |
| 2026-05-06 02:29 | 17.94443 | 118.90180 | 34937 ft | 515 kts | 45° |
| 2026-05-06 02:30 | 17.99253 | 118.95755 | 34938 ft | 515 kts | 46° |
| 2026-05-06 02:30 | 18.04064 | 119.01342 | 34936 ft | 516 kts | 45° |
| 2026-05-06 02:31 | 18.08880 | 119.06932 | 34939 ft | 516 kts | 45° |
| 2026-05-06 02:31 | 18.13659 | 119.12482 | 34937 ft | 516 kts | 45° |
| 2026-05-06 02:32 | 18.18471 | 119.18080 | 34939 ft | 516 kts | 46° |
| 2026-05-06 02:32 | 18.23281 | 119.23679 | 34935 ft | 516 kts | 46° |
| 2026-05-06 02:33 | 18.28092 | 119.29285 | 34936 ft | 516 kts | 46° |
| 2026-05-06 02:33 | 18.29684 | 119.31142 | 34941 ft | 516 kts | 46° |
| 2026-05-06 02:34 | 18.37680 | 119.40474 | 34937 ft | 516 kts | 46° |
| 2026-05-06 02:34 | 18.42488 | 119.46091 | 34939 ft | 516 kts | 46° |
| 2026-05-06 02:35 | 18.47295 | 119.51714 | 34937 ft | 516 kts | 46° |
| 2026-05-06 02:35 | 18.52101 | 119.57338 | 34937 ft | 517 kts | 46° |
| 2026-05-06 02:36 | 18.56879 | 119.62936 | 34940 ft | 517 kts | 46° |
| 2026-05-06 02:36 | 18.61683 | 119.68571 | 34934 ft | 517 kts | 46° |
| 2026-05-06 02:37 | 18.66487 | 119.74209 | 34939 ft | 517 kts | 46° |
| 2026-05-06 02:37 | 18.71294 | 119.79856 | 34937 ft | 517 kts | 46° |
| 2026-05-06 02:38 | 18.76067 | 119.85468 | 34939 ft | 518 kts | 46° |
| 2026-05-06 02:38 | 18.80877 | 119.91129 | 34939 ft | 518 kts | 46° |
| 2026-05-06 02:39 | 18.85681 | 119.96788 | 34937 ft | 518 kts | 46° |
| 2026-05-06 02:39 | 18.90487 | 120.02456 | 34936 ft | 518 kts | 46° |
| 2026-05-06 02:40 | 18.95265 | 120.08095 | 34936 ft | 518 kts | 46° |
| 2026-05-06 02:40 | 19.00075 | 120.13776 | 34939 ft | 519 kts | 46° |
| 2026-05-06 02:41 | 19.04884 | 120.19463 | 34941 ft | 519 kts | 46° |
| 2026-05-06 02:41 | 19.09693 | 120.25156 | 34941 ft | 519 kts | 46° |
| 2026-05-06 02:42 | 19.14474 | 120.30819 | 34938 ft | 520 kts | 46° |
| 2026-05-06 02:42 | 19.19286 | 120.36526 | 34938 ft | 520 kts | 46° |
| 2026-05-06 02:43 | 19.24101 | 120.42240 | 34943 ft | 521 kts | 45° |
| 2026-05-06 02:43 | 19.28920 | 120.47966 | 34947 ft | 521 kts | 46° |
| 2026-05-06 02:44 | 19.33708 | 120.53660 | 34943 ft | 521 kts | 45° |
| 2026-05-06 02:44 | 19.38531 | 120.59402 | 34942 ft | 522 kts | 45° |
| 2026-05-06 02:45 | 19.43351 | 120.65151 | 34946 ft | 522 kts | 45° |
| 2026-05-06 02:45 | 19.48171 | 120.70903 | 34947 ft | 522 kts | 45° |
| 2026-05-06 02:46 | 19.52967 | 120.76623 | 34946 ft | 523 kts | 45° |
| 2026-05-06 02:46 | 19.57798 | 120.82393 | 34946 ft | 523 kts | 45° |
| 2026-05-06 02:47 | 19.62629 | 120.88172 | 34946 ft | 523 kts | 45° |
| 2026-05-06 02:47 | 19.67460 | 120.93957 | 34950 ft | 524 kts | 45° |
| 2026-05-06 02:48 | 19.72251 | 120.99700 | 34953 ft | 524 kts | 45° |
| 2026-05-06 02:48 | 19.77088 | 121.05504 | 34954 ft | 524 kts | 45° |
| 2026-05-06 02:49 | 19.81917 | 121.11304 | 34948 ft | 524 kts | 45° |
| 2026-05-06 02:49 | 19.86751 | 121.17115 | 34941 ft | 525 kts | 45° |
| 2026-05-06 02:50 | 19.91583 | 121.22930 | 34950 ft | 525 kts | 45° |
| 2026-05-06 02:50 | 19.96383 | 121.28713 | 34971 ft | 525 kts | 45° |
| 2026-05-06 02:51 | 20.01212 | 121.34536 | 34955 ft | 525 kts | 45° |
| 2026-05-06 02:51 | 20.06043 | 121.40367 | 34957 ft | 525 kts | 45° |
| 2026-05-06 02:52 | 20.10875 | 121.46205 | 34959 ft | 526 kts | 45° |
| 2026-05-06 02:52 | 20.15669 | 121.52003 | 34967 ft | 526 kts | 45° |
| 2026-05-06 02:53 | 20.20497 | 121.57849 | 34964 ft | 526 kts | 45° |
| 2026-05-06 02:53 | 20.25314 | 121.63688 | 34964 ft | 526 kts | 45° |
| 2026-05-06 02:54 | 20.30144 | 121.69547 | 34967 ft | 526 kts | 45° |
| 2026-05-06 02:54 | 20.34972 | 121.75410 | 34971 ft | 526 kts | 45° |
| 2026-05-06 02:55 | 20.39772 | 121.81247 | 34970 ft | 526 kts | 45° |
| 2026-05-06 02:55 | 20.44602 | 121.87124 | 34973 ft | 527 kts | 45° |
| 2026-05-06 02:56 | 20.49431 | 121.93008 | 34972 ft | 527 kts | 45° |
| 2026-05-06 02:56 | 20.54256 | 121.98891 | 34975 ft | 527 kts | 45° |
| 2026-05-06 02:57 | 20.59053 | 122.04747 | 34978 ft | 528 kts | 45° |
| 2026-05-06 02:57 | 20.63882 | 122.10648 | 34978 ft | 528 kts | 44° |
| 2026-05-06 02:58 | 20.68710 | 122.16555 | 34978 ft | 528 kts | 44° |
| 2026-05-06 02:58 | 20.73539 | 122.22468 | 34979 ft | 528 kts | 44° |
| 2026-05-06 02:59 | 20.78373 | 122.28395 | 34977 ft | 529 kts | 44° |
| 2026-05-06 02:59 | 20.83203 | 122.34323 | 34983 ft | 529 kts | 44° |
| 2026-05-06 03:00 | 20.88037 | 122.40260 | 34985 ft | 529 kts | 44° |
| 2026-05-06 03:00 | 20.92870 | 122.46204 | 34985 ft | 530 kts | 44° |
| 2026-05-06 03:01 | 20.97709 | 122.52151 | 34993 ft | 530 kts | 43° |
| 2026-05-06 03:01 | 21.03232 | 122.57211 | 34985 ft | 519 kts | 30° |
| 2026-05-06 03:02 | 21.09218 | 122.61513 | 34986 ft | 518 kts | 27° |
| 2026-05-06 03:02 | 21.15284 | 122.65678 | 34990 ft | 518 kts | 27° |
| 2026-05-06 03:03 | 21.21349 | 122.69849 | 34980 ft | 518 kts | 27° |
| 2026-05-06 03:03 | 21.27364 | 122.74025 | 34988 ft | 519 kts | 27° |
| 2026-05-06 03:03 | 21.30388 | 122.76134 | 35172 ft | 516 kts | 27° |
| 2026-05-06 03:04 | 21.33378 | 122.78218 | 35621 ft | 509 kts | 27° |
| 2026-05-06 03:04 | 21.36337 | 122.80259 | 36044 ft | 503 kts | 26° |
| 2026-05-06 03:04 | 21.39293 | 122.82258 | 36263 ft | 503 kts | 26° |
| 2026-05-06 03:05 | 21.45363 | 122.86176 | 35993 ft | 517 kts | 24° |
| 2026-05-06 03:05 | 21.47441 | 122.87453 | 35851 ft | 521 kts | 24° |
| 2026-05-06 03:05 | 21.50484 | 122.89263 | 35837 ft | 523 kts | 22° |
| 2026-05-06 03:05 | 21.53677 | 122.91101 | 36165 ft | 518 kts | 22° |
| 2026-05-06 03:06 | 21.56840 | 122.92879 | 36709 ft | 508 kts | 21° |
| 2026-05-06 03:06 | 21.59956 | 122.94602 | 37180 ft | 501 kts | 21° |
| 2026-05-06 03:06 | 21.63063 | 122.96296 | 37350 ft | 502 kts | 21° |
| 2026-05-06 03:06 | 21.66205 | 122.97986 | 37170 ft | 509 kts | 20° |
| 2026-05-06 03:07 | 21.69415 | 122.99693 | 36836 ft | 520 kts | 20° |
| 2026-05-06 03:07 | 21.72687 | 123.01422 | 36624 ft | 526 kts | 20° |
| 2026-05-06 03:07 | 21.75974 | 123.03154 | 36694 ft | 525 kts | 20° |
| 2026-05-06 03:07 | 21.79239 | 123.04879 | 37019 ft | 520 kts | 20° |
| 2026-05-06 03:08 | 21.82462 | 123.06591 | 37423 ft | 514 kts | 20° |
| 2026-05-06 03:08 | 21.85657 | 123.08295 | 37705 ft | 512 kts | 20° |